Time;durP1;ratioP1;P1;durP2;ratioP2;P2;SDS_P1;SDS_P2;PMS_P1;PMS_P2;Temp;Humidity;BMP_temperature;BMP_pressure;BME280_temperature;BME280_humidity;BME280_pressure;Samples;Min_cycle;Max_cycle;Signal;HPM_P1;HPM_P2
2021/04/23 00:01:17;;;;;;;1.65;1.10;;;18.10;46.60;;;;;;5004057;28;20172;-78
2021/04/23 00:03:51;;;;;;;1.50;1.05;;;18.10;46.70;;;;;;4985970;28;20160;-79
2021/04/23 00:06:26;;;;;;;3.53;1.42;;;18.10;46.40;;;;;;4985347;28;20199;-80
2021/04/23 00:08:58;;;;;;;4.07;1.35;;;18.10;46.40;;;;;;5003352;28;20253;-79
2021/04/23 00:11:27;;;;;;;3.33;1.15;;;18.10;46.50;;;;;;4985385;28;20231;-81
2021/04/23 00:13:54;;;;;;;2.90;1.20;;;18.10;46.60;;;;;;4970476;28;20156;-80
2021/04/23 00:16:20;;;;;;;1.65;1.05;;;18.10;46.80;;;;;;4985913;28;20172;-80
2021/04/23 00:18:47;;;;;;;3.00;1.38;;;18.10;46.60;;;;;;5002178;28;20171;-80
2021/04/23 00:21:18;;;;;;;2.15;1.10;;;18.10;46.70;;;;;;5003177;28;20160;-82
2021/04/23 00:23:44;;;;;;;6.22;1.10;;;18.10;46.70;;;;;;5003277;28;20168;-79
2021/04/23 00:26:09;;;;;;;1.95;1.10;;;18.10;46.80;;;;;;5002909;28;20222;-80
2021/04/23 00:28:36;;;;;;;4.53;1.30;;;18.10;46.70;;;;;;4984871;28;20186;-78
2021/04/23 00:31:03;;;;;;;2.45;1.13;;;18.10;46.80;;;;;;4985957;28;20291;-78
2021/04/23 00:33:28;;;;;;;1.63;1.20;;;18.10;46.70;;;;;;4985834;28;20161;-80
2021/04/23 00:35:54;;;;;;;1.98;1.10;;;18.10;46.70;;;;;;4984934;28;20149;-79
2021/04/23 00:38:22;;;;;;;7.20;1.40;;;18.10;46.60;;;;;;4985415;28;20206;-79
2021/04/23 00:41:02;;;;;;;3.13;1.10;;;18.10;46.70;;;;;;5002419;28;20160;-80
2021/04/23 00:43:30;;;;;;;2.72;1.40;;;18.10;46.60;;;;;;5002319;28;20612;-79
2021/04/23 00:45:56;;;;;;;1.25;1.13;;;18.10;46.70;;;;;;5002168;28;20198;-79
2021/04/23 00:48:23;;;;;;;1.95;1.20;;;18.10;46.60;;;;;;4985357;28;20243;-80
2021/04/23 00:50:52;;;;;;;1.98;1.20;;;18.00;46.70;;;;;;5001746;28;20160;-79
2021/04/23 00:53:21;;;;;;;1.38;1.15;;;18.00;46.90;;;;;;5003002;28;20156;-80
2021/04/23 00:55:48;;;;;;;2.65;0.93;;;18.00;46.90;;;;;;5002811;28;20164;-80
2021/04/23 00:58:16;;;;;;;1.75;1.23;;;18.00;46.90;;;;;;5001834;28;20188;-78
2021/04/23 01:01:04;;;;;;;3.17;1.20;;;18.00;46.90;;;;;;5002802;28;20184;-79
2021/04/23 01:03:37;;;;;;;2.13;1.10;;;18.00;46.80;;;;;;4984692;28;20153;-79
2021/04/23 01:06:18;;;;;;;2.17;1.40;;;18.00;47.00;;;;;;4983975;28;20290;-79
2021/04/23 01:08:53;;;;;;;1.48;1.05;;;18.00;47.00;;;;;;5001932;28;20160;-79
2021/04/23 01:11:20;;;;;;;3.10;1.30;;;18.00;46.80;;;;;;5001058;28;20669;-81
2021/04/23 01:13:47;;;;;;;1.63;1.10;;;18.00;46.90;;;;;;5001610;28;20163;-80
2021/04/23 01:16:16;;;;;;;3.63;1.20;;;18.00;46.80;;;;;;4967265;28;20156;-81
2021/04/23 01:18:41;;;;;;;1.73;1.10;;;18.00;46.70;;;;;;4983495;28;20203;-79
2021/04/23 01:21:11;;;;;;;2.45;1.20;;;18.00;47.10;;;;;;4968096;28;20156;-79
2021/04/23 01:23:38;;;;;;;3.33;1.05;;;18.00;46.90;;;;;;4984089;28;20172;-79
2021/04/23 01:26:05;;;;;;;2.08;0.98;;;18.00;46.90;;;;;;5001402;28;20199;-80
2021/04/23 01:28:31;;;;;;;2.03;1.10;;;18.00;47.00;;;;;;5001106;28;20178;-81
2021/04/23 01:30:57;;;;;;;1.55;0.90;;;18.00;47.10;;;;;;4983394;28;20183;-78
2021/04/23 01:33:23;;;;;;;2.85;1.00;;;18.00;46.80;;;;;;5001110;28;20271;-78
2021/04/23 01:35:49;;;;;;;2.25;1.10;;;18.00;47.10;;;;;;4967179;28;20643;-81
2021/04/23 01:38:15;;;;;;;2.80;1.10;;;18.00;47.20;;;;;;5001380;28;20655;-79
2021/04/23 01:40:42;;;;;;;2.55;1.02;;;17.90;47.20;;;;;;5001247;28;20611;-78
2021/04/23 01:43:08;;;;;;;2.33;1.20;;;17.90;47.10;;;;;;4983352;28;20242;-79
2021/04/23 01:45:33;;;;;;;2.45;1.15;;;17.90;46.90;;;;;;5001230;28;20600;-78
2021/04/23 01:48:00;;;;;;;2.45;1.00;;;17.90;46.90;;;;;;5000320;28;20620;-79
2021/04/23 01:50:27;;;;;;;1.23;1.10;;;17.90;47.00;;;;;;5000575;28;20184;-80
2021/04/23 01:52:53;;;;;;;2.38;1.17;;;17.90;46.90;;;;;;4983600;28;20164;-80
2021/04/23 01:55:21;;;;;;;2.05;1.40;;;17.90;47.10;;;;;;5000742;28;20634;-79
2021/04/23 01:57:47;;;;;;;1.25;1.05;;;17.90;47.20;;;;;;4983691;28;20259;-78
2021/04/23 02:00:42;;;;;;;2.58;1.05;;;17.90;47.20;;;;;;4983876;28;20216;-81
2021/04/23 02:03:18;;;;;;;1.58;1.10;;;17.90;47.10;;;;;;4922155;29;20194;-79
2021/04/23 02:05:44;;;;;;;2.83;1.10;;;17.90;47.00;;;;;;4906191;29;20167;-80
2021/04/23 02:08:11;;;;;;;1.75;1.08;;;17.90;47.20;;;;;;4906549;29;20659;-79
2021/04/23 02:10:40;;;;;;;3.45;1.20;;;17.90;47.10;;;;;;4906116;29;20234;-81
2021/04/23 02:13:06;;;;;;;1.92;1.10;;;17.90;47.00;;;;;;4906714;29;20166;-80
2021/04/23 02:15:32;;;;;;;1.35;0.90;;;17.90;47.30;;;;;;4906391;29;20646;-79
2021/04/23 02:17:59;;;;;;;1.92;1.10;;;17.90;47.10;;;;;;4906553;29;20162;-79
2021/04/23 02:20:30;;;;;;;3.08;1.00;;;17.90;47.20;;;;;;4906260;29;20185;-80
2021/04/23 02:22:56;;;;;;;1.55;1.13;;;17.90;47.00;;;;;;4907113;29;20230;-80
2021/04/23 02:25:22;;;;;;;2.58;1.23;;;17.90;47.00;;;;;;4906460;29;20252;-80
2021/04/23 02:27:48;;;;;;;3.35;1.20;;;17.90;47.10;;;;;;4905495;29;20218;-80
2021/04/23 02:30:18;;;;;;;1.65;1.23;;;17.90;47.30;;;;;;4921774;29;20182;-79
2021/04/23 02:32:43;;;;;;;2.63;1.10;;;17.90;47.10;;;;;;4906318;29;20190;-78
2021/04/23 02:35:11;;;;;;;2.90;1.30;;;17.90;47.20;;;;;;4921594;29;20164;-78
2021/04/23 02:37:37;;;;;;;3.00;1.08;;;17.90;47.20;;;;;;4905473;29;20190;-80
2021/04/23 02:40:07;;;;;;;3.45;0.95;;;17.90;47.10;;;;;;4949661;28;20519;-79
2021/04/23 02:42:33;;;;;;;2.50;1.30;;;17.90;47.10;;;;;;4953531;28;20188;-80
2021/04/23 02:44:58;;;;;;;1.73;0.77;;;17.90;47.30;;;;;;5004603;28;20217;-80
2021/04/23 02:47:24;;;;;;;2.30;1.33;;;17.90;47.10;;;;;;4987290;28;20692;-78
2021/04/23 02:49:50;;;;;;;1.13;1.00;;;17.90;46.90;;;;;;4986805;28;20172;-81
2021/04/23 02:52:17;;;;;;;2.97;1.20;;;17.90;47.20;;;;;;5004650;28;20203;-79
2021/04/23 02:54:43;;;;;;;3.63;1.20;;;17.80;47.30;;;;;;4987852;28;20160;-79
2021/04/23 02:57:09;;;;;;;1.70;1.20;;;17.90;47.20;;;;;;5004781;28;20164;-80
2021/04/23 02:59:36;;;;;;;1.05;0.90;;;17.90;47.30;;;;;;4987066;28;20227;-80
2021/04/23 03:02:03;;;;;;;1.73;1.00;;;17.80;47.30;;;;;;5004800;28;20207;-79
2021/04/23 03:04:30;;;;;;;1.33;1.13;;;17.80;47.40;;;;;;4988025;28;20159;-78
2021/04/23 03:07:04;;;;;;;3.33;1.42;;;17.80;47.20;;;;;;5005604;28;20215;-79
2021/04/23 03:09:31;;;;;;;1.73;1.00;;;17.80;47.30;;;;;;5005939;28;20191;-81
2021/04/23 03:11:56;;;;;;;4.10;1.00;;;17.80;47.10;;;;;;5005879;28;20159;-80
2021/04/23 03:14:22;;;;;;;2.97;1.10;;;17.80;47.20;;;;;;5005240;28;20169;-80
2021/04/23 03:16:48;;;;;;;1.63;1.20;;;17.80;47.10;;;;;;5005779;28;20168;-78
2021/04/23 03:19:15;;;;;;;1.98;1.00;;;17.80;47.30;;;;;;5004747;28;20156;-79
2021/04/23 03:21:42;;;;;;;3.20;1.35;;;17.80;47.40;;;;;;5005754;28;20148;-80
2021/04/23 03:24:09;;;;;;;1.35;1.10;;;17.80;47.40;;;;;;4987189;28;20157;-79
2021/04/23 03:26:36;;;;;;;1.55;0.93;;;17.80;47.30;;;;;;4987341;28;20192;-79
2021/04/23 03:29:03;;;;;;;2.25;1.20;;;17.80;47.30;;;;;;4988044;28;20152;-79
2021/04/23 03:31:30;;;;;;;1.27;1.17;;;17.80;47.10;;;;;;5004907;28;20619;-78
2021/04/23 03:33:57;;;;;;;2.03;1.00;;;17.80;47.30;;;;;;5004487;28;20179;-77
2021/04/23 03:36:32;;;;;;;1.45;1.17;;;17.80;47.30;;;;;;5005659;28;20211;-80
2021/04/23 03:38:59;;;;;;;2.10;1.08;;;17.80;47.30;;;;;;5005518;28;20167;-80
2021/04/23 03:41:27;;;;;;;1.15;0.90;;;17.80;47.30;;;;;;4987381;28;20259;-79
2021/04/23 03:43:53;;;;;;;1.77;1.10;;;17.80;47.30;;;;;;4987384;28;20611;-80
2021/04/23 03:46:20;;;;;;;2.13;1.10;;;17.80;47.30;;;;;;5004753;28;20202;-80
2021/04/23 03:48:46;;;;;;;1.63;0.90;;;17.80;47.10;;;;;;5005654;28;20168;-80
2021/04/23 03:51:12;;;;;;;2.92;1.00;;;17.80;47.30;;;;;;5005738;28;20630;-79
2021/04/23 03:53:38;;;;;;;4.32;1.60;;;17.80;47.40;;;;;;5006206;28;20215;-81
2021/04/23 03:56:05;;;;;;;1.40;1.08;;;17.80;47.30;;;;;;4989246;28;20180;-79
2021/04/23 03:58:31;;;;;;;1.42;0.95;;;17.80;47.50;;;;;;5007204;28;20306;-80
2021/04/23 04:01:04;;;;;;;1.55;0.98;;;17.80;47.10;;;;;;5007136;28;20175;-79
2021/04/23 04:03:36;;;;;;;1.95;1.02;;;17.80;47.20;;;;;;4989382;28;20164;-79
2021/04/23 04:06:03;;;;;;;1.42;1.00;;;17.90;47.10;;;;;;5007792;28;20198;-81
2021/04/23 04:08:28;;;;;;;2.25;0.73;;;17.80;47.20;;;;;;5008135;28;20171;-79
2021/04/23 04:10:55;;;;;;;2.55;0.80;;;17.80;47.00;;;;;;4990912;28;20156;-81
2021/04/23 04:13:21;;;;;;;2.10;1.20;;;17.90;46.40;;;;;;4990908;28;20230;-80
2021/04/23 04:15:47;;;;;;;1.20;0.80;;;18.00;46.40;;;;;;4991021;28;20215;-81
2021/04/23 04:18:12;;;;;;;2.28;1.20;;;18.00;46.20;;;;;;5008264;28;20156;-81
2021/04/23 04:20:40;;;;;;;1.40;0.90;;;18.00;45.60;;;;;;5008292;28;20157;-81
2021/04/23 04:23:06;;;;;;;1.20;1.00;;;18.10;45.70;;;;;;5008148;28;20162;-82
2021/04/23 04:25:36;;;;;;;1.58;0.93;;;18.10;45.70;;;;;;4991241;28;20196;-81
2021/04/23 04:28:07;;;;;;;1.02;0.80;;;18.00;46.20;;;;;;4959114;28;20176;-81
2021/04/23 04:30:32;;;;;;;1.38;0.80;;;18.10;45.90;;;;;;5007718;28;20210;-81
2021/04/23 04:32:59;;;;;;;1.33;0.90;;;18.00;45.70;;;;;;5008587;28;20207;-80
2021/04/23 04:35:27;;;;;;;2.13;0.88;;;18.10;45.80;;;;;;5008330;28;20168;-81
2021/04/23 04:38:03;;;;;;;1.60;1.00;;;18.00;45.70;;;;;;4991598;28;20179;-80
2021/04/23 04:40:29;;;;;;;1.10;1.00;;;18.00;46.00;;;;;;4990618;28;20154;-81
2021/04/23 04:42:56;;;;;;;1.13;0.93;;;18.00;46.20;;;;;;5008450;28;20188;-81
2021/04/23 04:45:24;;;;;;;2.33;0.90;;;17.90;46.20;;;;;;5008066;28;20175;-81
2021/04/23 04:47:51;;;;;;;1.20;0.90;;;18.00;45.70;;;;;;4990861;28;20186;-81
2021/04/23 04:50:26;;;;;;;1.63;0.73;;;18.10;45.60;;;;;;5008091;28;20173;-81
2021/04/23 04:52:53;;;;;;;2.05;0.82;;;18.00;45.70;;;;;;5007902;28;20172;-82
2021/04/23 04:55:20;;;;;;;1.58;0.98;;;18.10;45.50;;;;;;5008535;28;20164;-81
2021/04/23 04:57:46;;;;;;;1.05;0.93;;;18.10;45.30;;;;;;5007968;28;20160;-81
2021/04/23 05:00:12;;;;;;;3.08;0.80;;;18.10;46.20;;;;;;5006996;28;20301;-79
2021/04/23 05:02:38;;;;;;;2.47;1.08;;;18.20;44.90;;;;;;5006679;28;20202;-82
2021/04/23 05:05:06;;;;;;;1.23;1.13;;;18.20;45.20;;;;;;4989794;28;20165;-81
2021/04/23 05:07:33;;;;;;;1.40;0.75;;;18.20;45.30;;;;;;4990003;28;20757;-80
2021/04/23 05:10:00;;;;;;;1.23;0.77;;;18.10;45.30;;;;;;5007336;28;20202;-81
2021/04/23 05:12:34;;;;;;;0.80;0.70;;;18.10;45.30;;;;;;4989768;28;20188;-81
2021/04/23 05:15:01;;;;;;;2.35;0.70;;;18.10;45.00;;;;;;5007122;28;20168;-80
2021/04/23 05:17:27;;;;;;;1.08;0.82;;;18.20;45.10;;;;;;5006673;28;20179;-81
2021/04/23 05:20:02;;;;;;;2.78;0.98;;;18.20;45.00;;;;;;5007311;28;20203;-81
2021/04/23 05:22:28;;;;;;;0.80;0.80;;;18.20;44.70;;;;;;5007881;28;20160;-80
2021/04/23 05:24:54;;;;;;;1.33;1.00;;;18.20;44.40;;;;;;5006691;28;20153;-80
2021/04/23 05:27:20;;;;;;;1.70;1.00;;;18.20;44.90;;;;;;5007170;28;20227;-81
2021/04/23 05:29:46;;;;;;;1.45;0.80;;;18.20;44.70;;;;;;4989659;28;20168;-82
2021/04/23 05:32:11;;;;;;;0.80;0.77;;;18.20;44.40;;;;;;5006906;28;20160;-82
2021/04/23 05:34:46;;;;;;;0.70;0.70;;;18.30;44.20;;;;;;4990196;28;20217;-82
2021/04/23 05:37:13;;;;;;;1.50;0.95;;;18.30;44.20;;;;;;4989541;28;20175;-82
2021/04/23 05:39:43;;;;;;;1.27;0.80;;;18.30;44.10;;;;;;5007813;28;20163;-81
2021/04/23 05:42:10;;;;;;;2.42;0.70;;;18.30;43.90;;;;;;5007321;28;20156;-81
2021/04/23 05:44:36;;;;;;;0.88;0.77;;;18.30;44.10;;;;;;5005857;28;20196;-82
2021/04/23 05:47:02;;;;;;;1.80;0.90;;;18.30;44.10;;;;;;4989178;28;20204;-81
2021/04/23 05:49:28;;;;;;;1.33;0.80;;;18.30;44.10;;;;;;5006230;28;20183;-82
2021/04/23 05:51:54;;;;;;;1.55;0.80;;;18.30;43.80;;;;;;4989640;28;20266;-81
2021/04/23 05:54:20;;;;;;;1.50;0.90;;;18.40;43.50;;;;;;4956523;28;20234;-82
2021/04/23 05:56:46;;;;;;;1.30;0.80;;;18.30;43.70;;;;;;5005252;28;20628;-81
2021/04/23 05:59:12;;;;;;;1.77;0.88;;;18.40;43.80;;;;;;4972401;28;20230;-81
2021/04/23 06:01:37;;;;;;;1.50;0.75;;;18.30;43.50;;;;;;4953230;28;20168;-80
2021/04/23 06:04:05;;;;;;;1.00;0.80;;;18.30;43.50;;;;;;4984476;28;20161;-80
2021/04/23 06:06:33;;;;;;;1.10;0.60;;;18.30;43.30;;;;;;4983300;28;20200;-81
2021/04/23 06:08:58;;;;;;;0.65;0.65;;;18.40;43.10;;;;;;5001711;28;20156;-80
2021/04/23 06:11:24;;;;;;;0.75;0.70;;;18.40;43.20;;;;;;4985418;28;20219;-81
2021/04/23 06:13:50;;;;;;;1.48;0.98;;;18.40;43.20;;;;;;4984680;28;20199;-80
2021/04/23 06:16:17;;;;;;;2.92;0.80;;;18.40;43.20;;;;;;4982421;28;20631;-80
2021/04/23 06:18:43;;;;;;;1.05;0.77;;;18.40;43.10;;;;;;4984071;28;20160;-81
2021/04/23 06:21:09;;;;;;;1.08;0.70;;;18.40;43.00;;;;;;5002013;28;20167;-80
2021/04/23 06:23:35;;;;;;;0.77;0.60;;;18.30;42.50;;;;;;4968501;28;20214;-82
2021/04/23 06:26:00;;;;;;;1.40;0.82;;;18.40;42.60;;;;;;4984871;28;20190;-82
2021/04/23 06:28:26;;;;;;;1.60;0.90;;;18.30;42.40;;;;;;5002788;28;20156;-81
2021/04/23 06:30:52;;;;;;;0.77;0.70;;;18.30;42.70;;;;;;4984484;28;20215;-79
2021/04/23 06:33:20;;;;;;;1.05;0.90;;;18.30;42.80;;;;;;4984191;28;20232;-80
2021/04/23 06:35:47;;;;;;;1.20;0.68;;;18.30;41.80;;;;;;4967553;28;20188;-78
2021/04/23 06:38:14;;;;;;;1.58;0.85;;;18.30;42.20;;;;;;4982589;28;20584;-80
2021/04/23 06:40:40;;;;;;;1.20;0.63;;;18.30;42.60;;;;;;4982475;28;20184;-81
2021/04/23 06:43:06;;;;;;;0.77;0.70;;;18.20;42.50;;;;;;5000751;28;20508;-80
2021/04/23 06:45:31;;;;;;;1.30;0.90;;;18.20;42.50;;;;;;4967609;28;20255;-80
2021/04/23 06:47:58;;;;;;;0.80;0.80;;;18.20;42.50;;;;;;5000894;28;20690;-79
2021/04/23 06:50:25;;;;;;;2.00;1.00;;;18.20;42.50;;;;;;4999512;28;20152;-81
2021/04/23 06:52:55;;;;;;;1.00;0.50;;;18.20;42.50;;;;;;4965446;28;20219;-81
2021/04/23 06:55:24;;;;;;;0.88;0.68;;;18.20;42.10;;;;;;4980810;28;20169;-81
2021/04/23 06:57:50;;;;;;;0.90;0.70;;;18.20;42.00;;;;;;4998093;28;20199;-79
2021/04/23 07:00:21;;;;;;;1.20;0.68;;;18.20;41.70;;;;;;4997835;28;20216;-78
2021/04/23 07:02:50;;;;;;;0.93;0.90;;;18.30;41.70;;;;;;4996805;28;20161;-80
2021/04/23 07:05:24;;;;;;;1.08;0.63;;;18.30;41.80;;;;;;4979807;28;20191;-81
2021/04/23 07:07:51;;;;;;;0.68;0.60;;;18.30;42.00;;;;;;4996568;28;20271;-80
2021/04/23 07:10:20;;;;;;;0.77;0.68;;;18.30;41.60;;;;;;4979099;28;20157;-77
2021/04/23 07:12:47;;;;;;;1.38;0.80;;;18.30;41.90;;;;;;4996772;28;20156;-79
2021/04/23 07:15:18;;;;;;;1.02;0.60;;;18.20;41.90;;;;;;4996055;28;20161;-81
2021/04/23 07:17:45;;;;;;;0.77;0.63;;;18.20;41.50;;;;;;4978869;28;20160;-80
2021/04/23 07:20:14;;;;;;;1.60;0.60;;;18.20;41.70;;;;;;4980064;28;20160;-82
2021/04/23 07:22:41;;;;;;;0.82;0.70;;;18.20;41.40;;;;;;4999716;28;20164;-81
2021/04/23 07:25:09;;;;;;;1.73;0.80;;;18.30;41.70;;;;;;4981894;28;20675;-81
2021/04/23 07:27:36;;;;;;;1.38;0.60;;;18.30;41.30;;;;;;4985141;28;20259;-81
2021/04/23 07:30:05;;;;;;;0.95;0.70;;;18.30;40.80;;;;;;5005118;28;20154;-80
2021/04/23 07:32:31;;;;;;;1.30;0.77;;;18.40;41.00;;;;;;5005738;28;20635;-79
2021/04/23 07:34:58;;;;;;;0.82;0.70;;;18.30;40.90;;;;;;5006062;28;20164;-81
2021/04/23 07:37:26;;;;;;;1.50;0.60;;;18.30;40.90;;;;;;4972259;28;20160;-82
2021/04/23 07:39:55;;;;;;;1.50;0.75;;;18.30;41.20;;;;;;4988362;28;20153;-81
2021/04/23 07:42:22;;;;;;;1.83;0.70;;;18.30;41.40;;;;;;5002885;28;20164;-81
2021/04/23 07:44:48;;;;;;;0.57;0.57;;;18.20;40.80;;;;;;5005818;28;20158;-81
2021/04/23 07:47:14;;;;;;;1.10;0.85;;;18.30;41.00;;;;;;5005035;28;20669;-78
2021/04/23 07:49:42;;;;;;;1.17;0.60;;;18.20;41.30;;;;;;5010352;28;20608;-82
2021/04/23 07:52:08;;;;;;;1.35;0.80;;;18.20;40.80;;;;;;5006424;28;20179;-80
2021/04/23 07:54:35;;;;;;;1.17;0.70;;;18.20;41.00;;;;;;5006385;28;20156;-81
2021/04/23 07:57:01;;;;;;;1.10;0.77;;;18.30;40.50;;;;;;5006401;28;20639;-79
2021/04/23 07:59:37;;;;;;;0.93;0.60;;;18.30;40.70;;;;;;5009173;28;20707;-81
2021/04/23 08:02:03;;;;;;;1.15;1.05;;;18.20;41.00;;;;;;4990311;28;20246;-81
2021/04/23 08:04:29;;;;;;;0.90;0.70;;;18.30;40.40;;;;;;4993013;28;20532;-82
2021/04/23 08:06:55;;;;;;;0.80;0.80;;;18.30;41.00;;;;;;4976072;28;20211;-81
2021/04/23 08:09:24;;;;;;;0.65;0.65;;;18.30;40.60;;;;;;4973367;28;20525;-80
2021/04/23 08:11:51;;;;;;;1.42;0.57;;;18.30;40.70;;;;;;5006191;28;20218;-81
2021/04/23 08:14:19;;;;;;;1.10;0.77;;;18.30;40.40;;;;;;4967520;28;20204;-79
2021/04/23 08:16:46;;;;;;;0.70;0.60;;;18.30;40.30;;;;;;4968555;28;20161;-81
2021/04/23 08:19:15;;;;;;;0.70;0.70;;;18.30;40.60;;;;;;4985484;28;20240;-80
2021/04/23 08:21:52;;;;;;;1.08;0.70;;;18.30;40.80;;;;;;4967547;28;20248;-80
2021/04/23 08:24:19;;;;;;;1.25;0.80;;;18.30;40.60;;;;;;4967918;28;20172;-80
2021/04/23 08:26:46;;;;;;;0.88;0.60;;;18.30;40.50;;;;;;4984452;28;20272;-80
2021/04/23 08:29:12;;;;;;;0.70;0.70;;;18.30;40.60;;;;;;4985347;28;20168;-80
2021/04/23 08:31:48;;;;;;;1.27;0.80;;;18.30;40.50;;;;;;4984799;28;20161;-81
2021/04/23 08:34:14;;;;;;;0.70;0.70;;;18.30;40.60;;;;;;4966907;28;20598;-80
2021/04/23 08:36:40;;;;;;;0.63;0.63;;;18.40;40.60;;;;;;4966937;28;20635;-78
2021/04/23 08:39:08;;;;;;;1.63;0.73;;;18.40;40.60;;;;;;4983395;28;20225;-81
2021/04/23 08:41:35;;;;;;;2.88;0.80;;;18.40;40.60;;;;;;4982799;28;20149;-79
2021/04/23 08:44:02;;;;;;;0.60;0.60;;;18.30;40.30;;;;;;4967398;28;20157;-81
2021/04/23 08:46:28;;;;;;;1.63;0.85;;;18.40;40.30;;;;;;4986658;28;20679;-81
2021/04/23 08:48:55;;;;;;;0.85;0.70;;;18.40;40.30;;;;;;4986150;28;20161;-79
2021/04/23 08:51:30;;;;;;;1.25;0.75;;;18.40;40.10;;;;;;4984543;28;20169;-80
2021/04/23 08:54:05;;;;;;;2.30;0.73;;;18.40;40.20;;;;;;4967574;28;20461;-81
2021/04/23 08:56:31;;;;;;;1.98;0.73;;;18.50;40.20;;;;;;4986580;28;20553;-81
2021/04/23 08:58:56;;;;;;;1.33;0.60;;;18.50;39.90;;;;;;4987095;28;20223;-81
2021/04/23 09:01:23;;;;;;;1.05;0.68;;;18.50;39.70;;;;;;4971775;28;20211;-80
2021/04/23 09:03:51;;;;;;;1.55;0.70;;;18.50;39.90;;;;;;4987096;28;20153;-79
2021/04/23 09:06:24;;;;;;;0.60;0.60;;;18.60;39.50;;;;;;4971166;28;20210;-80
2021/04/23 09:08:56;;;;;;;1.35;0.75;;;18.60;39.70;;;;;;4971674;28;20200;-80
2021/04/23 09:11:23;;;;;;;0.60;0.57;;;18.50;40.00;;;;;;4987712;28;20631;-80
2021/04/23 09:13:54;;;;;;;0.70;0.70;;;18.50;40.00;;;;;;5004597;28;20169;-81
2021/04/23 09:16:22;;;;;;;0.80;0.80;;;18.60;39.80;;;;;;4986340;28;20175;-80
2021/04/23 09:18:59;;;;;;;0.50;0.50;;;18.60;39.50;;;;;;5004823;28;20171;-80
2021/04/23 09:21:25;;;;;;;2.45;0.88;;;18.70;39.60;;;;;;4987169;28;20179;-80
2021/04/23 09:23:53;;;;;;;0.77;0.70;;;18.70;39.70;;;;;;4986395;28;20156;-82
2021/04/23 09:26:39;;;;;;;0.60;0.60;;;18.70;39.50;;;;;;4987288;28;20690;-78
2021/04/23 09:29:19;;;;;;;0.77;0.63;;;18.70;39.80;;;;;;5004826;28;20157;-80
2021/04/23 09:31:46;;;;;;;1.35;0.70;;;18.70;39.60;;;;;;4988434;28;20219;-80
2021/04/23 09:34:22;;;;;;;0.98;0.60;;;18.70;39.60;;;;;;5005214;28;20187;-80
2021/04/23 09:36:49;;;;;;;0.70;0.60;;;18.70;39.50;;;;;;5005370;28;20159;-80
2021/04/23 09:39:17;;;;;;;1.00;0.90;;;18.70;39.40;;;;;;5005298;28;20160;-80
2021/04/23 09:41:56;;;;;;;0.60;0.60;;;18.80;39.60;;;;;;4987705;28;20632;-81
2021/04/23 09:44:31;;;;;;;0.85;0.65;;;18.80;39.50;;;;;;5004313;28;20207;-80
2021/04/23 09:47:13;;;;;;;0.80;0.68;;;18.80;39.60;;;;;;4987792;28;20183;-81
2021/04/23 09:49:56;;;;;;;0.80;0.80;;;18.80;39.50;;;;;;5004932;28;20167;-80
2021/04/23 09:52:22;;;;;;;0.85;0.68;;;18.70;39.80;;;;;;5004291;28;20251;-80
2021/04/23 09:54:51;;;;;;;0.95;0.80;;;18.70;39.10;;;;;;5001035;28;20508;-80
2021/04/23 09:57:36;;;;;;;1.63;0.65;;;18.70;39.60;;;;;;4987072;28;20172;-80
2021/04/23 10:00:12;;;;;;;0.65;0.60;;;18.70;39.60;;;;;;5004540;28;20318;-80
2021/04/23 10:02:39;;;;;;;2.30;0.90;;;18.80;39.30;;;;;;5004580;28;20160;-80
2021/04/23 10:05:29;;;;;;;1.55;0.73;;;18.80;39.50;;;;;;4987727;28;20223;-81
2021/04/23 10:07:55;;;;;;;2.00;0.90;;;18.90;39.60;;;;;;5005441;28;20210;-80
2021/04/23 10:10:22;;;;;;;2.92;0.70;;;18.80;39.20;;;;;;4971019;28;20163;-80
2021/04/23 10:12:53;;;;;;;1.30;0.80;;;18.90;39.50;;;;;;5005441;28;20568;-80
2021/04/23 10:15:21;;;;;;;5.72;0.88;;;18.80;39.50;;;;;;5005175;28;20229;-80
2021/04/23 10:18:10;;;;;;;2.10;0.70;;;18.80;39.50;;;;;;5004357;28;20186;-80
2021/04/23 10:20:40;;;;;;;1.00;0.55;;;18.80;39.40;;;;;;4988325;28;20158;-80
2021/04/23 10:23:07;;;;;;;0.80;0.70;;;18.80;39.60;;;;;;5004769;28;20163;-81
2021/04/23 10:25:33;;;;;;;2.35;1.02;;;18.80;39.60;;;;;;5004152;28;20554;-78
2021/04/23 10:28:05;;;;;;;1.90;0.75;;;18.80;39.50;;;;;;5005687;28;20646;-80
2021/04/23 10:30:32;;;;;;;2.70;0.80;;;18.80;39.20;;;;;;5005080;28;20152;-79
2021/04/23 10:33:03;;;;;;;2.10;0.90;;;18.90;39.50;;;;;;5004724;28;20182;-80
2021/04/23 10:35:29;;;;;;;3.85;0.73;;;18.80;39.50;;;;;;5004447;28;20232;-80
2021/04/23 10:38:06;;;;;;;2.22;0.77;;;18.80;39.70;;;;;;5004799;28;20167;-80
2021/04/23 10:40:32;;;;;;;1.42;0.95;;;18.90;39.50;;;;;;4986948;28;20160;-80
2021/04/23 10:43:08;;;;;;;0.70;0.70;;;18.90;39.20;;;;;;5004967;28;20167;-80
2021/04/23 10:45:41;;;;;;;2.75;0.90;;;19.00;39.30;;;;;;5003725;28;20191;-79
2021/04/23 10:48:13;;;;;;;1.35;0.85;;;19.00;39.00;;;;;;4970912;28;20231;-82
2021/04/23 10:50:46;;;;;;;0.90;0.70;;;19.00;39.10;;;;;;5005653;28;20199;-80
2021/04/23 10:53:13;;;;;;;0.73;0.60;;;19.00;39.00;;;;;;4988223;28;20180;-81
2021/04/23 10:55:46;;;;;;;1.10;0.60;;;18.90;39.00;;;;;;4971415;28;20161;-79
2021/04/23 10:58:33;;;;;;;1.20;0.70;;;18.90;39.30;;;;;;4971261;28;20164;-81
2021/04/23 11:01:13;;;;;;;2.72;0.80;;;18.90;39.00;;;;;;4973039;28;20168;-82
2021/04/23 11:03:40;;;;;;;2.60;0.82;;;18.90;39.20;;;;;;4992898;28;20249;-82
2021/04/23 11:06:13;;;;;;;2.60;0.75;;;19.00;39.30;;;;;;4992555;28;20164;-82
2021/04/23 11:08:59;;;;;;;1.08;0.75;;;18.90;39.20;;;;;;4992978;28;20175;-82
2021/04/23 11:11:35;;;;;;;0.60;0.60;;;18.80;39.20;;;;;;5010719;28;20164;-82
2021/04/23 11:14:21;;;;;;;2.08;0.80;;;18.90;39.30;;;;;;4993130;28;20218;-81
2021/04/23 11:16:48;;;;;;;1.60;0.90;;;18.90;39.30;;;;;;5007542;28;20167;-84
2021/04/23 11:19:20;;;;;;;1.65;0.93;;;18.90;39.20;;;;;;5008814;28;20148;-80
2021/04/23 11:21:49;;;;;;;0.80;0.60;;;18.90;39.20;;;;;;5008291;28;20260;-80
2021/04/23 11:24:27;;;;;;;1.33;0.73;;;18.90;39.50;;;;;;4966915;28;20585;-79
2021/04/23 11:27:03;;;;;;;2.30;0.68;;;18.90;38.90;;;;;;4983779;28;20721;-79
2021/04/23 11:29:33;;;;;;;2.30;0.80;;;18.90;39.30;;;;;;4984395;28;20650;-79
2021/04/23 11:32:16;;;;;;;1.05;0.80;;;18.90;39.20;;;;;;5004946;28;20176;-79
2021/04/23 11:35:00;;;;;;;0.90;0.70;;;18.90;39.10;;;;;;5007026;28;20171;-79
2021/04/23 11:37:30;;;;;;;3.33;0.77;;;18.80;39.40;;;;;;5008625;28;20160;-80
2021/04/23 11:40:15;;;;;;;0.70;0.63;;;18.90;39.30;;;;;;4990789;28;20570;-80
2021/04/23 11:42:45;;;;;;;1.33;0.80;;;18.90;39.20;;;;;;4991083;28;20180;-81
2021/04/23 11:45:16;;;;;;;0.80;0.80;;;19.00;39.20;;;;;;4974342;28;20165;-79
2021/04/23 11:47:44;;;;;;;1.88;1.00;;;18.90;39.00;;;;;;4989723;28;20229;-80
2021/04/23 11:50:21;;;;;;;0.90;0.80;;;19.00;39.10;;;;;;4989061;28;20173;-80
2021/04/23 11:53:08;;;;;;;2.03;0.70;;;19.00;39.20;;;;;;4971699;28;20161;-80
2021/04/23 11:55:36;;;;;;;1.20;0.77;;;18.90;39.00;;;;;;4988100;28;20196;-81
2021/04/23 11:58:10;;;;;;;2.95;0.90;;;18.90;39.10;;;;;;4988002;28;20224;-79
2021/04/23 12:00:39;;;;;;;1.77;0.63;;;18.90;38.80;;;;;;4989135;28;20153;-80
2021/04/23 12:03:07;;;;;;;0.90;0.70;;;19.00;38.90;;;;;;4970243;28;20168;-80
2021/04/23 12:05:49;;;;;;;0.70;0.70;;;18.90;38.90;;;;;;4969847;28;20205;-79
2021/04/23 12:08:33;;;;;;;1.15;0.65;;;19.00;39.00;;;;;;4986603;28;20180;-79
2021/04/23 12:11:06;;;;;;;0.65;0.45;;;19.00;38.60;;;;;;4987960;28;20632;-79
2021/04/23 12:13:43;;;;;;;1.38;0.80;;;19.00;38.70;;;;;;4986547;28;20180;-79
2021/04/23 12:16:21;;;;;;;1.75;0.90;;;19.00;38.80;;;;;;4970092;28;20165;-80
2021/04/23 12:18:51;;;;;;;1.50;0.70;;;19.00;38.90;;;;;;4986985;28;20216;-80
2021/04/23 12:21:18;;;;;;;0.60;0.60;;;19.00;38.90;;;;;;4986844;28;20184;-80
2021/04/23 12:23:45;;;;;;;1.00;0.60;;;19.00;38.60;;;;;;4969340;28;20165;-80
2021/04/23 12:26:12;;;;;;;0.68;0.68;;;19.10;38.70;;;;;;4969869;28;20240;-80
2021/04/23 12:28:45;;;;;;;1.25;0.60;;;19.00;38.70;;;;;;4987719;28;20212;-80
2021/04/23 12:31:17;;;;;;;2.97;0.70;;;19.00;39.20;;;;;;4971154;28;20212;-80
2021/04/23 12:33:54;;;;;;;1.10;0.60;;;19.00;39.10;;;;;;4987554;28;20161;-80
2021/04/23 12:36:28;;;;;;;0.80;0.80;;;19.00;39.00;;;;;;4954261;28;20259;-80
2021/04/23 12:38:56;;;;;;;0.80;0.70;;;19.00;39.10;;;;;;4985841;28;20383;-80
2021/04/23 12:41:28;;;;;;;3.03;1.23;;;18.90;39.20;;;;;;4954259;28;20523;-79
2021/04/23 12:43:54;;;;;;;0.80;0.70;;;19.00;39.00;;;;;;4992686;28;20175;-78
2021/04/23 12:46:22;;;;;;;4.20;0.85;;;19.00;38.80;;;;;;4982267;28;20212;-79
2021/04/23 12:48:58;;;;;;;1.33;0.65;;;19.00;38.50;;;;;;5010156;28;20172;-80
2021/04/23 12:51:25;;;;;;;1.13;0.65;;;19.00;38.70;;;;;;4984512;28;20160;-78
2021/04/23 12:53:51;;;;;;;2.22;0.98;;;19.00;38.50;;;;;;4981148;28;20180;-80
2021/04/23 12:56:22;;;;;;;1.40;0.80;;;19.00;39.30;;;;;;4981142;28;20512;-78
2021/04/23 12:58:47;;;;;;;14.20;1.15;;;18.90;39.50;;;;;;4980215;28;20311;-78